createdAt,value
2023-04-27T00:01:15.533Z,6.20
2023-04-27T00:03:43.176Z,6.17
2023-04-27T00:06:10.032Z,6.18
2023-04-27T00:08:37.046Z,6.19
2023-04-27T00:11:03.969Z,6.22
2023-04-27T00:13:30.957Z,6.25
2023-04-27T00:15:57.942Z,6.25
2023-04-27T00:18:24.624Z,6.25
2023-04-27T00:20:51.407Z,6.24
2023-04-27T00:23:18.027Z,6.22
2023-04-27T00:25:44.681Z,6.20
2023-04-27T00:28:11.491Z,6.19
2023-04-27T00:30:38.328Z,6.16
2023-04-27T00:33:04.865Z,6.15
2023-04-27T00:35:33.688Z,6.12
2023-04-27T00:38:00.379Z,6.10
2023-04-27T00:40:26.992Z,6.09
2023-04-27T00:42:53.666Z,6.08
2023-04-27T00:45:20.557Z,6.06
2023-04-27T00:47:47.451Z,6.04
2023-04-27T00:50:14.968Z,6.05
2023-04-27T00:52:42.172Z,6.03
2023-04-27T00:55:09.481Z,6.03
2023-04-27T00:57:36.237Z,6.04
2023-04-27T01:00:05.042Z,6.05
2023-04-27T01:02:31.797Z,6.06
2023-04-27T01:04:58.600Z,6.06
2023-04-27T01:07:26.730Z,6.06
2023-04-27T01:09:53.412Z,6.06
2023-04-27T01:12:20.166Z,6.05
2023-04-27T01:14:47.130Z,6.01
2023-04-27T01:17:14.210Z,5.99
2023-04-27T01:19:41.312Z,5.95
2023-04-27T01:22:08.062Z,5.89
2023-04-27T01:24:34.666Z,5.86
2023-04-27T01:27:01.744Z,5.82
2023-04-27T01:29:28.544Z,5.78
2023-04-27T01:31:55.096Z,5.74
2023-04-27T01:34:21.792Z,5.69
2023-04-27T01:36:48.829Z,5.62
2023-04-27T01:39:16.453Z,5.55
2023-04-27T01:41:43.714Z,5.48
2023-04-27T01:44:10.346Z,5.42
2023-04-27T01:46:37.159Z,5.38
2023-04-27T01:49:04.123Z,5.33
2023-04-27T01:51:31.059Z,5.31
2023-04-27T01:53:57.585Z,5.28
2023-04-27T01:56:24.430Z,5.26
2023-04-27T01:58:53.136Z,5.23
2023-04-27T02:01:19.627Z,5.18
2023-04-27T02:03:48.881Z,5.14
2023-04-27T02:06:15.707Z,5.08
2023-04-27T02:08:42.600Z,5.05
2023-04-27T02:11:09.595Z,5.03
2023-04-27T02:13:36.244Z,4.99
2023-04-27T02:16:05.030Z,4.94
2023-04-27T02:18:36.087Z,4.88
2023-04-27T02:21:08.611Z,4.84
2023-04-27T02:23:35.789Z,4.80
2023-04-27T02:26:02.664Z,4.76
2023-04-27T02:28:29.378Z,4.69
2023-04-27T02:30:56.518Z,4.62
2023-04-27T02:33:23.016Z,4.57
2023-04-27T02:35:49.693Z,4.52
2023-04-27T02:38:16.333Z,4.44
2023-04-27T02:40:43.396Z,4.39
2023-04-27T02:43:10.614Z,4.33
2023-04-27T02:45:38.452Z,4.28
2023-04-27T02:48:05.490Z,4.20
2023-04-27T02:50:32.179Z,4.14
2023-04-27T02:52:59.674Z,4.08
2023-04-27T02:55:27.574Z,4.03
2023-04-27T02:57:54.420Z,4.00
2023-04-27T03:00:21.180Z,3.95
2023-04-27T03:02:48.007Z,3.91
2023-04-27T03:05:14.971Z,3.87
2023-04-27T03:07:41.984Z,3.83
2023-04-27T03:10:09.015Z,3.79
2023-04-27T03:12:35.900Z,3.76
2023-04-27T03:15:03.086Z,3.74
2023-04-27T03:17:29.875Z,3.71
2023-04-27T03:19:56.746Z,3.68
2023-04-27T03:22:23.757Z,3.66
2023-04-27T03:24:50.560Z,3.65
2023-04-27T03:27:17.371Z,3.63
2023-04-27T03:29:44.220Z,3.61
2023-04-27T03:32:11.137Z,3.59
2023-04-27T03:34:37.997Z,3.57
2023-04-27T03:37:04.968Z,3.55
2023-04-27T03:39:31.810Z,3.54
2023-04-27T03:41:59.177Z,3.54
2023-04-27T03:44:26.024Z,3.54
2023-04-27T03:46:53.013Z,3.54
2023-04-27T03:49:19.570Z,3.53
2023-04-27T03:51:46.371Z,3.50
2023-04-27T03:54:13.256Z,3.48
2023-04-27T03:56:40.591Z,3.45
2023-04-27T03:59:07.324Z,3.41
2023-04-27T04:01:34.705Z,3.37
2023-04-27T04:04:01.648Z,3.33
2023-04-27T04:06:28.752Z,3.31
2023-04-27T04:08:55.476Z,3.29
2023-04-27T04:11:22.509Z,3.27
2023-04-27T04:13:49.431Z,3.23
2023-04-27T04:16:16.476Z,3.22
2023-04-27T04:18:43.211Z,3.22
2023-04-27T04:21:11.269Z,3.20
2023-04-27T04:23:38.176Z,3.21
2023-04-27T04:26:05.682Z,3.19
2023-04-27T04:28:32.493Z,3.17
2023-04-27T04:31:01.496Z,3.18
2023-04-27T04:33:28.404Z,3.18
2023-04-27T04:35:55.340Z,3.18
2023-04-27T04:38:23.384Z,3.18
2023-04-27T04:40:51.182Z,3.19
2023-04-27T04:43:18.184Z,3.20
2023-04-27T04:45:44.847Z,3.26
2023-04-27T04:48:11.695Z,3.35
2023-04-27T04:50:39.501Z,3.43
2023-04-27T04:53:06.680Z,3.52
2023-04-27T04:55:33.209Z,3.61
2023-04-27T04:58:00.670Z,3.67
2023-04-27T05:00:27.500Z,3.74
2023-04-27T05:02:54.426Z,3.79
2023-04-27T05:05:21.380Z,3.85
2023-04-27T05:07:47.801Z,3.92
2023-04-27T05:10:14.553Z,3.99
2023-04-27T05:12:41.361Z,4.05
2023-04-27T05:15:08.683Z,4.11
2023-04-27T05:17:36.128Z,4.16
2023-04-27T05:20:04.587Z,4.24
2023-04-27T05:22:31.325Z,4.32
2023-04-27T05:24:58.999Z,4.38
2023-04-27T05:27:25.696Z,4.44
2023-04-27T05:29:52.372Z,4.53
2023-04-27T05:32:19.078Z,4.63
2023-04-27T05:34:48.771Z,4.72
2023-04-27T05:37:16.161Z,4.80
2023-04-27T05:39:42.607Z,4.86
2023-04-27T05:42:09.214Z,4.94
2023-04-27T05:44:36.216Z,5.02
2023-04-27T05:47:02.787Z,5.06
2023-04-27T05:49:29.501Z,5.14
2023-04-27T05:51:56.302Z,5.22
2023-04-27T05:54:22.816Z,5.28
2023-04-27T05:56:50.336Z,5.36
2023-04-27T05:59:17.134Z,5.41
2023-04-27T06:01:43.639Z,5.49
2023-04-27T06:04:10.597Z,5.57
2023-04-27T06:06:37.320Z,5.60
2023-04-27T06:09:04.487Z,5.68
2023-04-27T06:11:31.226Z,5.77
2023-04-27T06:13:58.104Z,5.84
2023-04-27T06:16:24.855Z,5.93
2023-04-27T06:18:51.909Z,6.05
2023-04-27T06:21:18.782Z,6.16
2023-04-27T06:23:45.608Z,6.21
2023-04-27T06:26:12.290Z,6.23
2023-04-27T06:28:39.232Z,6.34
2023-04-27T06:31:06.301Z,6.42
2023-04-27T06:33:33.613Z,6.48
2023-04-27T06:36:02.326Z,6.59
2023-04-27T06:38:29.404Z,6.60
2023-04-27T06:40:56.293Z,6.71
2023-04-27T06:43:23.123Z,6.81
2023-04-27T06:45:49.792Z,6.94
2023-04-27T06:48:17.246Z,7.04
2023-04-27T06:50:44.112Z,7.13
2023-04-27T06:53:11.350Z,7.21
2023-04-27T06:55:38.952Z,7.26
2023-04-27T06:58:06.533Z,7.39
2023-04-27T07:00:33.269Z,7.49
2023-04-27T07:03:00.050Z,7.57
2023-04-27T07:05:27.265Z,7.64
2023-04-27T07:07:54.119Z,7.72
2023-04-27T07:10:21.477Z,7.75
2023-04-27T07:12:48.064Z,7.81
2023-04-27T07:15:15.065Z,7.93
2023-04-27T07:17:42.185Z,8.11
2023-04-27T07:20:09.395Z,8.29
2023-04-27T07:22:36.595Z,8.42
2023-04-27T07:25:05.048Z,8.60
2023-04-27T07:27:31.897Z,8.71
2023-04-27T07:29:58.882Z,8.70
2023-04-27T07:32:26.153Z,8.79
2023-04-27T07:34:55.161Z,8.97
2023-04-27T07:37:22.885Z,9.19
2023-04-27T07:39:50.621Z,9.41
2023-04-27T07:42:17.419Z,9.52
2023-04-27T07:44:44.273Z,9.45
2023-04-27T07:47:11.342Z,9.30
2023-04-27T07:49:38.338Z,9.30
2023-04-27T07:52:05.321Z,9.35
2023-04-27T07:54:32.335Z,9.48
2023-04-27T07:56:59.087Z,9.64
2023-04-27T07:59:28.965Z,9.74
2023-04-27T08:02:07.171Z,9.68
2023-04-27T08:04:42.795Z,9.56
2023-04-27T08:07:10.824Z,9.60
2023-04-27T08:09:37.920Z,9.78
2023-04-27T08:12:04.900Z,10.04
2023-04-27T08:14:33.965Z,10.23
2023-04-27T08:17:01.125Z,10.32
2023-04-27T08:19:28.111Z,10.44
2023-04-27T08:21:54.868Z,10.59
2023-04-27T08:24:21.809Z,10.79
2023-04-27T08:26:48.506Z,10.91
2023-04-27T08:29:26.281Z,10.98
2023-04-27T08:31:56.449Z,11.06
2023-04-27T08:34:23.910Z,11.20
2023-04-27T08:36:50.730Z,11.47
2023-04-27T08:39:18.151Z,11.69
2023-04-27T08:41:45.010Z,11.96
2023-04-27T08:44:11.891Z,12.11
2023-04-27T08:46:39.502Z,12.29
2023-04-27T08:49:07.682Z,12.33
2023-04-27T08:51:35.305Z,12.35
2023-04-27T08:54:02.439Z,12.29
2023-04-27T08:56:30.148Z,12.24
2023-04-27T08:58:58.135Z,12.21
2023-04-27T09:01:27.347Z,12.28
2023-04-27T09:04:02.235Z,12.30
2023-04-27T09:06:34.794Z,12.41
2023-04-27T09:09:02.552Z,12.37
2023-04-27T09:11:38.226Z,12.45
2023-04-27T09:14:23.080Z,12.16
2023-04-27T09:17:00.270Z,11.78
2023-04-27T09:19:28.956Z,11.49
2023-04-27T09:22:11.971Z,11.21
2023-04-27T09:24:38.857Z,10.99
2023-04-27T09:27:06.969Z,11.11
2023-04-27T09:29:37.952Z,11.41
2023-04-27T09:32:17.580Z,11.68
2023-04-27T09:34:44.581Z,11.94
2023-04-27T09:37:11.556Z,12.11
2023-04-27T09:39:38.397Z,12.25
2023-04-27T09:42:05.732Z,12.45
2023-04-27T09:44:32.946Z,12.69
2023-04-27T09:47:00.908Z,12.92
2023-04-27T09:49:29.265Z,12.97
2023-04-27T09:51:58.747Z,12.76
2023-04-27T09:54:29.197Z,12.36
2023-04-27T09:57:20.714Z,12.01
2023-04-27T10:00:10.804Z,11.90
2023-04-27T10:02:53.661Z,12.20
2023-04-27T10:05:26.861Z,12.58
2023-04-27T10:07:54.032Z,12.85
2023-04-27T10:10:20.778Z,13.02
2023-04-27T10:13:02.819Z,13.17
2023-04-27T10:15:30.128Z,13.41
2023-04-27T10:18:03.795Z,13.67
2023-04-27T10:20:32.517Z,13.81
2023-04-27T10:23:00.512Z,13.90
2023-04-27T10:25:29.458Z,13.85
2023-04-27T10:27:59.078Z,13.64
2023-04-27T10:30:37.297Z,13.53
2023-04-27T10:33:09.487Z,13.35
2023-04-27T10:35:38.376Z,13.24
2023-04-27T10:38:15.119Z,13.39
2023-04-27T10:40:43.792Z,13.57
2023-04-27T10:43:16.065Z,13.79
2023-04-27T10:45:43.608Z,14.10
2023-04-27T10:48:14.440Z,14.35
2023-04-27T10:50:42.507Z,14.63
2023-04-27T10:53:09.002Z,14.78
2023-04-27T10:55:36.320Z,14.64
2023-04-27T10:58:04.181Z,14.44
2023-04-27T11:00:37.607Z,14.13
2023-04-27T11:03:16.826Z,14.02
2023-04-27T11:05:45.294Z,13.97
2023-04-27T11:08:14.187Z,13.84
2023-04-27T11:10:44.286Z,13.85
2023-04-27T11:13:13.259Z,13.91
2023-04-27T11:15:54.110Z,13.86
2023-04-27T11:18:22.473Z,13.84
2023-04-27T11:20:50.924Z,13.72
2023-04-27T11:23:36.850Z,13.75
2023-04-27T11:26:10.846Z,14.08
2023-04-27T11:28:37.637Z,14.48
2023-04-27T11:31:06.958Z,14.85
2023-04-27T11:33:33.738Z,15.16
2023-04-27T11:36:00.684Z,15.29
2023-04-27T11:38:33.711Z,15.57
2023-04-27T11:41:07.567Z,15.89
2023-04-27T11:43:34.926Z,16.17
2023-04-27T11:46:06.971Z,16.29
2023-04-27T11:48:37.151Z,16.33
2023-04-27T11:51:04.278Z,16.21
2023-04-27T11:53:36.495Z,16.05
2023-04-27T11:56:08.040Z,15.79
2023-04-27T11:58:36.290Z,15.61
2023-04-27T12:01:04.278Z,15.59
2023-04-27T12:03:31.920Z,15.58
2023-04-27T12:06:11.491Z,15.53
2023-04-27T12:08:43.293Z,15.40
2023-04-27T12:11:10.165Z,15.28
2023-04-27T12:13:37.024Z,15.16
2023-04-27T12:16:03.854Z,15.14
2023-04-27T12:18:31.211Z,15.30
2023-04-27T12:21:01.518Z,15.72
2023-04-27T12:23:29.823Z,16.35
2023-04-27T12:25:56.754Z,17.07
2023-04-27T12:28:23.508Z,17.72
2023-04-27T12:30:50.480Z,18.33
2023-04-27T12:33:17.411Z,18.93
2023-04-27T12:35:44.229Z,19.20
2023-04-27T12:38:10.798Z,19.62
2023-04-27T12:40:37.916Z,20.39
2023-04-27T12:43:04.570Z,21.24
2023-04-27T12:45:31.577Z,22.36
2023-04-27T12:48:03.756Z,23.53
2023-04-27T12:50:32.014Z,24.42
2023-04-27T12:52:59.016Z,25.43
2023-04-27T12:55:33.640Z,26.35
2023-04-27T12:58:02.091Z,27.20
2023-04-27T13:00:29.755Z,27.58
2023-04-27T13:02:58.384Z,27.99
2023-04-27T13:05:25.057Z,28.43
2023-04-27T13:07:52.280Z,28.63
2023-04-27T13:10:18.820Z,28.45
2023-04-27T13:12:45.601Z,28.60
2023-04-27T13:15:12.215Z,29.34
2023-04-27T13:17:38.684Z,29.73
2023-04-27T13:20:07.251Z,29.25
2023-04-27T13:22:33.789Z,28.35
2023-04-27T13:25:00.861Z,27.18
2023-04-27T13:27:28.582Z,26.06
2023-04-27T13:29:55.929Z,24.59
2023-04-27T13:32:22.623Z,23.34
2023-04-27T13:34:49.397Z,22.65
2023-04-27T13:37:17.677Z,22.09
2023-04-27T13:39:44.426Z,21.43
2023-04-27T13:42:11.512Z,21.01
2023-04-27T13:44:38.222Z,20.72
2023-04-27T13:47:05.178Z,20.64
2023-04-27T13:49:32.316Z,20.85
2023-04-27T13:51:59.961Z,20.72
2023-04-27T13:54:27.301Z,21.98
2023-04-27T13:56:54.014Z,23.44
2023-04-27T13:59:21.673Z,24.19
2023-04-27T14:01:48.377Z,23.95
2023-04-27T14:04:15.375Z,23.33
2023-04-27T14:06:42.207Z,22.56
2023-04-27T14:09:09.317Z,21.77
2023-04-27T14:11:45.073Z,21.14
2023-04-27T14:14:19.509Z,20.71
2023-04-27T14:16:46.513Z,20.73
2023-04-27T14:19:16.117Z,22.26
2023-04-27T14:21:42.954Z,23.54
2023-04-27T14:24:09.558Z,23.35
2023-04-27T14:26:36.094Z,22.71
2023-04-27T14:29:02.695Z,22.10
2023-04-27T14:31:29.765Z,21.89
2023-04-27T14:33:57.389Z,22.84
2023-04-27T14:36:24.294Z,24.32
2023-04-27T14:38:50.691Z,25.64
2023-04-27T14:41:17.419Z,26.66
2023-04-27T14:43:46.185Z,25.93
2023-04-27T14:48:46.687Z,26.22
2023-04-27T14:51:16.375Z,27.07
2023-04-27T14:53:43.970Z,27.76
2023-04-27T14:56:11.423Z,28.36
2023-04-27T14:58:37.964Z,28.97
2023-04-27T15:01:04.996Z,29.01
2023-04-27T15:03:34.657Z,28.00
2023-04-27T15:06:02.118Z,27.44
2023-04-27T15:08:30.685Z,27.89
2023-04-27T15:10:59.963Z,28.01
2023-04-27T15:13:27.807Z,28.67
2023-04-27T15:15:56.455Z,29.15
2023-04-27T15:18:24.161Z,29.68
2023-04-27T15:20:58.797Z,30.30
2023-04-27T15:23:27.633Z,30.64
2023-04-27T15:25:56.418Z,30.82
2023-04-27T15:28:23.319Z,30.99
2023-04-27T15:30:50.117Z,31.21
2023-04-27T15:33:17.378Z,31.41
2023-04-27T15:35:43.999Z,31.20
2023-04-27T15:38:13.389Z,31.21
2023-04-27T15:40:40.423Z,31.22
2023-04-27T15:43:07.374Z,31.52
2023-04-27T15:45:34.205Z,31.33
2023-04-27T15:48:01.487Z,31.01
2023-04-27T15:50:28.634Z,31.04
2023-04-27T15:52:55.238Z,30.87
2023-04-27T15:55:22.311Z,30.72
2023-04-27T15:57:48.848Z,30.55
2023-04-27T16:00:16.950Z,30.25
2023-04-27T16:02:44.048Z,29.91
2023-04-27T16:05:10.784Z,29.55
2023-04-27T16:07:39.518Z,29.21
2023-04-27T16:10:07.063Z,28.92
2023-04-27T16:12:33.743Z,28.50
2023-04-27T16:15:00.871Z,28.19
2023-04-27T16:17:31.708Z,27.74
2023-04-27T16:19:58.692Z,27.22
2023-04-27T16:22:25.435Z,26.54
2023-04-27T16:24:52.244Z,26.11
2023-04-27T16:27:20.578Z,25.62
2023-04-27T16:29:47.588Z,24.80
2023-04-27T16:32:14.725Z,24.11
2023-04-27T16:34:41.635Z,23.44
2023-04-27T16:37:08.397Z,22.76
2023-04-27T16:39:35.716Z,22.24
2023-04-27T16:42:02.905Z,21.62
2023-04-27T16:44:29.699Z,21.02
2023-04-27T16:46:56.462Z,20.59
2023-04-27T16:49:23.630Z,20.14
2023-04-27T16:51:51.252Z,19.74
2023-04-27T16:54:18.132Z,19.22
2023-04-27T16:56:45.914Z,18.69
2023-04-27T16:59:12.815Z,18.30
2023-04-27T17:01:39.958Z,17.95
2023-04-27T17:04:06.653Z,17.59
2023-04-27T17:06:34.688Z,17.23
2023-04-27T17:09:01.660Z,16.89
2023-04-27T17:11:28.521Z,16.58
2023-04-27T17:13:55.502Z,16.32
2023-04-27T17:16:23.567Z,16.03
2023-04-27T17:18:50.125Z,15.74
2023-04-27T17:21:17.324Z,15.47
2023-04-27T17:23:46.582Z,15.20
2023-04-27T17:26:15.861Z,14.94
2023-04-27T17:28:42.498Z,14.71
2023-04-27T17:31:09.212Z,14.47
2023-04-27T17:33:36.252Z,14.22
2023-04-27T17:36:03.349Z,14.01
2023-04-27T17:38:29.993Z,13.84
2023-04-27T17:40:57.024Z,13.69
2023-04-27T17:43:23.836Z,13.56
2023-04-27T17:45:50.569Z,13.42
2023-04-27T17:48:17.710Z,13.29
2023-04-27T17:50:44.576Z,13.17
2023-04-27T17:53:11.316Z,13.06
2023-04-27T17:55:37.951Z,12.98
2023-04-27T17:58:06.275Z,12.89
2023-04-27T18:00:33.216Z,12.77
2023-04-27T18:03:00.583Z,12.68
2023-04-27T18:05:27.653Z,12.60
2023-04-27T18:07:54.421Z,12.53
2023-04-27T18:10:20.954Z,12.44
2023-04-27T18:12:47.525Z,12.33
2023-04-27T18:15:14.057Z,12.23
2023-04-27T18:17:41.383Z,12.17
2023-04-27T18:20:10.552Z,12.10
2023-04-27T18:22:40.755Z,12.03
2023-04-27T18:25:09.406Z,11.97
2023-04-27T18:27:37.671Z,11.85
2023-04-27T18:30:08.630Z,11.73
2023-04-27T18:32:35.528Z,11.64
2023-04-27T18:35:03.314Z,11.55
2023-04-27T18:37:29.957Z,11.45
2023-04-27T18:39:56.485Z,11.32
2023-04-27T18:42:23.543Z,11.18
2023-04-27T18:44:54.730Z,11.05
2023-04-27T18:47:21.720Z,10.95
2023-04-27T18:49:48.826Z,10.87
2023-04-27T18:52:15.431Z,10.77
2023-04-27T18:54:42.284Z,10.69
2023-04-27T18:57:09.023Z,10.61
2023-04-27T18:59:38.343Z,10.54
2023-04-27T19:02:06.260Z,10.46
2023-04-27T19:04:33.581Z,10.38
2023-04-27T19:07:00.202Z,10.29
2023-04-27T19:09:27.081Z,10.21
2023-04-27T19:12:02.472Z,10.12
2023-04-27T19:14:31.234Z,10.05
2023-04-27T19:16:57.994Z,9.99
2023-04-27T19:19:25.822Z,9.92
2023-04-27T19:21:52.606Z,9.85
2023-04-27T19:24:19.586Z,9.77
2023-04-27T19:26:47.700Z,9.67
2023-04-27T19:29:14.593Z,9.58
2023-04-27T19:31:41.592Z,9.51
2023-04-27T19:34:08.328Z,9.43
2023-04-27T19:36:35.127Z,9.36
2023-04-27T19:39:01.704Z,9.28
2023-04-27T19:41:28.371Z,9.21
2023-04-27T19:43:55.519Z,9.13
2023-04-27T19:46:22.166Z,9.08
2023-04-27T19:48:48.714Z,9.02
2023-04-27T19:51:15.322Z,8.95
2023-04-27T19:53:41.934Z,8.90
2023-04-27T19:56:08.583Z,8.87
2023-04-27T19:58:36.099Z,8.82
2023-04-27T20:01:03.956Z,8.77
2023-04-27T20:03:31.004Z,8.74
2023-04-27T20:05:58.306Z,8.71
2023-04-27T20:08:25.203Z,8.68
2023-04-27T20:10:51.848Z,8.66
2023-04-27T20:13:18.398Z,8.64
2023-04-27T20:15:45.218Z,8.64
2023-04-27T20:18:12.212Z,8.64
2023-04-27T20:20:39.048Z,8.63
2023-04-27T20:23:06.058Z,8.63
2023-04-27T20:25:32.954Z,8.61
2023-04-27T20:27:59.605Z,8.61
2023-04-27T20:30:27.704Z,8.60
2023-04-27T20:32:55.255Z,8.57
2023-04-27T20:35:22.242Z,8.55
2023-04-27T20:37:48.988Z,8.53
2023-04-27T20:40:17.992Z,8.52
2023-04-27T20:42:45.787Z,8.51
2023-04-27T20:45:13.275Z,8.48
2023-04-27T20:47:40.170Z,8.45
2023-04-27T20:50:07.809Z,8.42
2023-04-27T20:52:34.817Z,8.40
2023-04-27T20:55:02.432Z,8.38
2023-04-27T20:57:29.295Z,8.34
2023-04-27T20:59:56.087Z,8.29
2023-04-27T21:02:22.840Z,8.27
2023-04-27T21:04:49.548Z,8.23
2023-04-27T21:07:16.215Z,8.20
2023-04-27T21:09:43.110Z,8.15
2023-04-27T21:12:10.163Z,8.11
2023-04-27T21:14:37.386Z,8.07
2023-04-27T21:17:04.060Z,8.02
2023-04-27T21:19:30.761Z,7.98
2023-04-27T21:21:57.318Z,7.92
2023-04-27T21:24:24.204Z,7.87
2023-04-27T21:26:51.000Z,7.81
2023-04-27T21:29:17.702Z,7.75
2023-04-27T21:31:44.266Z,7.72
2023-04-27T21:34:10.882Z,7.70
2023-04-27T21:36:37.536Z,7.66
2023-04-27T21:39:04.179Z,7.62
2023-04-27T21:41:30.737Z,7.63
2023-04-27T21:43:57.244Z,7.65
2023-04-27T21:46:24.055Z,7.65
2023-04-27T21:48:50.784Z,7.64
2023-04-27T21:51:17.406Z,7.61
2023-04-27T21:53:43.889Z,7.59
2023-04-27T21:56:10.654Z,7.55
2023-04-27T21:58:37.275Z,7.48
2023-04-27T22:01:03.913Z,7.43
2023-04-27T22:03:30.850Z,7.40
2023-04-27T22:05:57.516Z,7.36
2023-04-27T22:08:24.086Z,7.31
2023-04-27T22:10:50.908Z,7.27
2023-04-27T22:13:19.383Z,7.23
2023-04-27T22:15:47.239Z,7.19
2023-04-27T22:18:15.344Z,7.16
2023-04-27T22:20:42.765Z,7.13
2023-04-27T22:23:09.934Z,7.08
2023-04-27T22:25:36.711Z,7.04
2023-04-27T22:28:03.559Z,6.98
2023-04-27T22:30:30.621Z,6.93
2023-04-27T22:32:57.696Z,6.89
2023-04-27T22:35:27.117Z,6.86
2023-04-27T22:37:59.201Z,6.82
2023-04-27T22:40:26.078Z,6.78
2023-04-27T22:42:54.052Z,6.76
2023-04-27T22:45:22.007Z,6.73
2023-04-27T22:47:49.435Z,6.69
2023-04-27T22:50:16.467Z,6.66
2023-04-27T22:52:43.234Z,6.63
2023-04-27T22:55:11.592Z,6.59
2023-04-27T22:57:38.685Z,6.55
2023-04-27T23:00:05.793Z,6.50
2023-04-27T23:02:32.492Z,6.46
2023-04-27T23:04:59.317Z,6.42
2023-04-27T23:07:25.975Z,6.38
2023-04-27T23:09:52.947Z,6.36
2023-04-27T23:12:20.796Z,6.35
2023-04-27T23:14:47.501Z,6.35
2023-04-27T23:17:17.003Z,6.35
2023-04-27T23:19:43.715Z,6.33
2023-04-27T23:22:10.466Z,6.32
2023-04-27T23:24:37.149Z,6.31
2023-04-27T23:27:03.983Z,6.30
2023-04-27T23:29:30.948Z,6.31
2023-04-27T23:32:04.619Z,6.29
2023-04-27T23:34:34.256Z,6.29
2023-04-27T23:37:00.922Z,6.28
2023-04-27T23:39:30.308Z,6.28
2023-04-27T23:41:56.927Z,6.29
2023-04-27T23:44:23.724Z,6.29
2023-04-27T23:46:50.493Z,6.31
2023-04-27T23:49:17.241Z,6.34
2023-04-27T23:51:43.785Z,6.35
2023-04-27T23:54:10.537Z,6.38
2023-04-27T23:56:36.978Z,6.41
2023-04-27T23:59:03.492Z,6.44
